Time;durP1;ratioP1;P1;durP2;ratioP2;P2;SDS_P1;SDS_P2;PMS_P1;PMS_P2;Temp;Humidity;BMP_temperature;BMP_pressure;BME280_temperature;BME280_humidity;BME280_pressure;Samples;Min_cycle;Max_cycle;Signal;HPM_P1;HPM_P2
2023/07/05 00:02:17;;;;;;;1.50;1.30;;;;;;;;;;7305342;19;140506;-83
2023/07/05 00:04:45;;;;;;;2.95;1.30;;;;;;;;;;7306232;19;140441;-83
2023/07/05 00:07:12;;;;;;;1.65;1.23;;;;;;;;;;7303844;19;141203;-83
2023/07/05 00:09:39;;;;;;;1.73;1.20;;;;;;;;;;7305640;19;140770;-85
2023/07/05 00:12:07;;;;;;;1.95;1.10;;;;;;;;;;7305702;19;140600;-85
2023/07/05 00:14:34;;;;;;;2.75;1.45;;;;;;;;;;7305858;19;140448;-84
2023/07/05 00:17:02;;;;;;;1.85;1.23;;;;;;;;;;7304460;19;141828;-83
2023/07/05 00:19:29;;;;;;;2.50;1.42;;;;;;;;;;7304513;19;140923;-80
2023/07/05 00:21:56;;;;;;;2.00;1.05;;;;;;;;;;7305520;19;140639;-81
2023/07/05 00:24:26;;;;;;;1.52;1.10;;;;;;;;;;7303327;19;140583;-82
2023/07/05 00:26:53;;;;;;;1.85;1.17;;;;;;;;;;7305000;19;141895;-82
2023/07/05 00:29:20;;;;;;;2.67;1.20;;;;;;;;;;7305819;19;141690;-83
2023/07/05 00:31:48;;;;;;;1.55;1.40;;;;;;;;;;7305314;19;140495;-84
2023/07/05 00:34:15;;;;;;;1.48;1.20;;;;;;;;;;7305219;19;140540;-84
2023/07/05 00:36:42;;;;;;;3.13;1.35;;;;;;;;;;7303111;19;141011;-83
2023/07/05 00:39:09;;;;;;;1.08;0.90;;;;;;;;;;7304387;19;141892;-86
2023/07/05 00:41:36;;;;;;;2.30;1.30;;;;;;;;;;7304543;19;140665;-85
2023/07/05 00:44:04;;;;;;;1.15;1.02;;;;;;;;;;7303409;19;140521;-85
2023/07/05 00:46:33;;;;;;;2.28;1.00;;;;;;;;;;7304463;19;141157;-79
2023/07/05 00:49:15;;;;;;;1.30;1.20;;;;;;;;;;7304285;19;141838;-78
2023/07/05 00:51:47;;;;;;;1.45;1.20;;;;;;;;;;7304892;19;140349;-78
2023/07/05 00:54:17;;;;;;;1.75;1.10;;;;;;;;;;7305372;19;140509;-78
2023/07/05 00:56:50;;;;;;;2.37;1.23;;;;;;;;;;7304060;19;141503;-78
2023/07/05 00:59:20;;;;;;;1.77;1.25;;;;;;;;;;7303912;19;141997;-78
2023/07/05 01:01:47;;;;;;;1.35;1.10;;;;;;;;;;7303553;19;140486;-77
2023/07/05 01:04:32;;;;;;;2.60;1.23;;;;;;;;;;7302726;19;140736;-77
2023/07/05 01:07:00;;;;;;;3.20;1.33;;;;;;;;;;7303919;19;141325;-77
2023/07/05 01:09:29;;;;;;;1.73;1.13;;;;;;;;;;7304123;19;141044;-82
2023/07/05 01:12:05;;;;;;;2.08;1.20;;;;;;;;;;7304056;19;140556;-83
2023/07/05 01:14:40;;;;;;;1.67;1.20;;;;;;;;;;7303954;19;140562;-82
2023/07/05 01:17:39;;;;;;;1.95;1.38;;;;;;;;;;7302730;19;141449;-85
2023/07/05 01:20:18;;;;;;;2.03;1.40;;;;;;;;;;7304128;19;141695;-88
2023/07/05 01:22:54;;;;;;;1.30;1.08;;;;;;;;;;7304475;19;140430;-85
2023/07/05 01:25:30;;;;;;;3.33;1.30;;;;;;;;;;7303171;19;140526;-83
2023/07/05 01:28:11;;;;;;;1.35;1.20;;;;;;;;;;7303285;19;141182;-81
2023/07/05 01:31:06;;;;;;;3.60;1.15;;;;;;;;;;7301497;19;142240;-87
2023/07/05 01:33:52;;;;;;;1.30;1.10;;;;;;;;;;7300534;19;140893;-86
2023/07/05 01:36:19;;;;;;;2.00;1.23;;;;;;;;;;7301584;19;140747;-85
2023/07/05 01:38:47;;;;;;;1.45;1.23;;;;;;;;;;7302663;19;141285;-85
2023/07/05 01:41:14;;;;;;;1.60;1.10;;;;;;;;;;7303016;19;141206;-84
2023/07/05 01:43:43;;;;;;;1.73;1.30;;;;;;;;;;7301737;19;141182;-86
2023/07/05 01:46:22;;;;;;;1.48;1.17;;;;;;;;;;7303297;19;140550;-86
2023/07/05 01:49:04;;;;;;;1.40;1.20;;;;;;;;;;7300874;19;141372;-85
2023/07/05 01:51:39;;;;;;;1.30;1.20;;;;;;;;;;7302882;19;141477;-86
2023/07/05 01:54:10;;;;;;;2.60;1.10;;;;;;;;;;7303867;19;140459;-86
2023/07/05 01:56:53;;;;;;;1.65;1.10;;;;;;;;;;7302900;19;140675;-86
2023/07/05 01:59:25;;;;;;;1.40;1.20;;;;;;;;;;7302223;19;141240;-88
2023/07/05 02:01:55;;;;;;;1.88;1.30;;;;;;;;;;7302430;19;142497;-93
2023/07/05 02:04:24;;;;;;;1.60;1.40;;;;;;;;;;7305825;19;140469;-90
2023/07/05 02:06:53;;;;;;;3.00;1.23;;;;;;;;;;7305184;19;140554;-90
2023/07/05 02:09:20;;;;;;;2.35;1.30;;;;;;;;;;7303088;19;141434;-91
2023/07/05 02:11:47;;;;;;;1.40;1.15;;;;;;;;;;7306105;19;141743;-89
2023/07/05 02:14:15;;;;;;;1.85;1.10;;;;;;;;;;7305893;19;140536;-89
2023/07/05 02:16:42;;;;;;;2.10;1.30;;;;;;;;;;7303332;19;140647;-85
2023/07/05 02:19:10;;;;;;;2.65;1.10;;;;;;;;;;7300828;19;142430;-84
2023/07/05 02:21:37;;;;;;;3.80;1.35;;;;;;;;;;7300912;19;141829;-84
2023/07/05 02:24:04;;;;;;;1.77;1.15;;;;;;;;;;7302052;19;140590;-83
2023/07/05 02:26:33;;;;;;;2.25;1.10;;;;;;;;;;7301982;19;140624;-84
2023/07/05 02:29:01;;;;;;;2.53;1.33;;;;;;;;;;7301500;19;142281;-84
2023/07/05 02:31:29;;;;;;;1.67;1.08;;;;;;;;;;7301726;19;141937;-84
2023/07/05 02:33:56;;;;;;;2.92;1.40;;;;;;;;;;7299212;19;140661;-84
2023/07/05 02:36:24;;;;;;;1.30;1.00;;;;;;;;;;7302003;19;140535;-83
2023/07/05 02:38:52;;;;;;;2.92;1.10;;;;;;;;;;7299735;19;141860;-83
2023/07/05 02:41:20;;;;;;;1.55;1.30;;;;;;;;;;7299943;19;141125;-83
2023/07/05 02:43:47;;;;;;;3.17;1.40;;;;;;;;;;7300802;19;140892;-82
2023/07/05 02:46:14;;;;;;;1.23;1.10;;;;;;;;;;7299788;19;140658;-81
2023/07/05 02:48:42;;;;;;;2.53;1.10;;;;;;;;;;7299903;19;142408;-82
2023/07/05 02:51:09;;;;;;;4.68;1.40;;;;;;;;;;7301023;19;140616;-84
2023/07/05 02:53:36;;;;;;;1.30;1.00;;;;;;;;;;7299354;19;141027;-82
2023/07/05 02:56:04;;;;;;;1.63;1.20;;;;;;;;;;7300649;19;140585;-84
2023/07/05 02:58:31;;;;;;;2.10;1.30;;;;;;;;;;7299114;19;141429;-84
2023/07/05 03:00:58;;;;;;;1.55;1.40;;;;;;;;;;7300487;19;142366;-85
2023/07/05 03:03:26;;;;;;;1.90;1.30;;;;;;;;;;7298535;19;140790;-84
2023/07/05 03:05:58;;;;;;;1.20;1.10;;;;;;;;;;7299249;19;140733;-84
2023/07/05 03:08:27;;;;;;;2.88;1.33;;;;;;;;;;7300164;19;141521;-84
2023/07/05 03:10:55;;;;;;;2.30;1.13;;;;;;;;;;7300362;19;143025;-85
2023/07/05 03:13:29;;;;;;;2.65;1.40;;;;;;;;;;7300672;19;140772;-84
2023/07/05 03:15:57;;;;;;;3.22;1.23;;;;;;;;;;7300280;19;140378;-85
2023/07/05 03:18:26;;;;;;;3.58;1.30;;;;;;;;;;7299423;19;140773;-84
2023/07/05 03:20:53;;;;;;;1.90;1.30;;;;;;;;;;7298358;19;142449;-85
2023/07/05 03:23:21;;;;;;;2.97;1.27;;;;;;;;;;7300431;19;140587;-86
2023/07/05 03:25:59;;;;;;;2.00;1.42;;;;;;;;;;7299482;19;140386;-85
2023/07/05 03:28:29;;;;;;;1.52;0.98;;;;;;;;;;7298860;19;140653;-85
2023/07/05 03:31:00;;;;;;;1.42;1.20;;;;;;;;;;7299513;19;142038;-85
2023/07/05 03:33:29;;;;;;;1.42;1.10;;;;;;;;;;7299877;19;140592;-85
2023/07/05 03:36:00;;;;;;;2.40;1.00;;;;;;;;;;7298540;19;140577;-86
2023/07/05 03:38:29;;;;;;;1.77;1.20;;;;;;;;;;7299212;19;141565;-84
2023/07/05 03:41:04;;;;;;;2.22;1.17;;;;;;;;;;7300011;19;141748;-86
2023/07/05 03:43:36;;;;;;;1.20;1.00;;;;;;;;;;7300109;19;140470;-87
2023/07/05 03:46:05;;;;;;;1.92;1.38;;;;;;;;;;7299689;19;140415;-87
2023/07/05 03:48:38;;;;;;;1.52;1.20;;;;;;;;;;7299381;19;140666;-86
2023/07/05 03:51:07;;;;;;;2.03;1.33;;;;;;;;;;7299569;19;142082;-86
2023/07/05 03:53:34;;;;;;;1.77;1.45;;;;;;;;;;7300728;19;140598;-87
2023/07/05 03:56:04;;;;;;;1.63;1.30;;;;;;;;;;7300809;19;140575;-89
2023/07/05 03:58:35;;;;;;;1.30;1.10;;;;;;;;;;7303908;19;140591;-89
2023/07/05 04:01:07;;;;;;;;;;;;;;;;;;7309067;19;141839;-89
2023/07/05 04:03:35;;;;;;;1.58;0.98;;;;;;;;;;7308031;19;140320;-89
2023/07/05 04:06:02;;;;;;;1.80;1.00;;;;;;;;;;7308339;19;140427;-89
2023/07/05 04:08:30;;;;;;;2.55;1.50;;;;;;;;;;7306022;19;140613;-89
2023/07/05 04:10:57;;;;;;;1.48;1.08;;;;;;;;;;7306800;19;142427;-89
2023/07/05 04:13:25;;;;;;;1.10;1.00;;;;;;;;;;7306135;19;140749;-88
2023/07/05 04:15:59;;;;;;;3.22;1.20;;;;;;;;;;7306240;19;140568;-88
2023/07/05 04:18:28;;;;;;;1.65;1.20;;;;;;;;;;7304825;19;141162;-84
2023/07/05 04:20:56;;;;;;;1.20;1.10;;;;;;;;;;7305167;19;141743;-83
2023/07/05 04:23:23;;;;;;;1.52;1.00;;;;;;;;;;7304368;19;140432;-82
2023/07/05 04:26:07;;;;;;;2.72;1.25;;;;;;;;;;7306121;19;140435;-81
2023/07/05 04:28:36;;;;;;;2.38;1.25;;;;;;;;;;7306047;19;140462;-93
2023/07/05 04:31:05;;;;;;;1.80;0.93;;;;;;;;;;7307479;19;140770;-92
2023/07/05 04:33:33;;;;;;;1.58;1.00;;;;;;;;;;7309158;19;140513;-95
2023/07/05 04:36:01;;;;;;;3.28;1.10;;;;;;;;;;7310379;19;140425;-83
2023/07/05 04:38:29;;;;;;;4.40;2.20;;;;;;;;;;7306758;19;142202;-87
2023/07/05 04:40:57;;;;;;;15.57;5.68;;;;;;;;;;7306681;19;141900;-86
2023/07/05 04:43:26;;;;;;;9.85;3.97;;;;;;;;;;7305771;19;140357;-83
2023/07/05 04:45:56;;;;;;;6.18;3.25;;;;;;;;;;7305169;19;140827;-82
2023/07/05 04:48:26;;;;;;;4.90;2.47;;;;;;;;;;7303279;19;141338;-81
2023/07/05 04:50:54;;;;;;;7.13;2.60;;;;;;;;;;7303151;19;140767;-79
2023/07/05 04:53:23;;;;;;;5.95;2.70;;;;;;;;;;7303409;19;140623;-80
2023/07/05 04:55:52;;;;;;;5.40;2.40;;;;;;;;;;7304265;19;141643;-79
2023/07/05 04:58:21;;;;;;;4.78;2.13;;;;;;;;;;7304016;19;142544;-80
2023/07/05 05:00:51;;;;;;;4.60;2.22;;;;;;;;;;7302585;19;142800;-79
2023/07/05 05:03:22;;;;;;;4.68;2.33;;;;;;;;;;7303482;19;140613;-90
2023/07/05 05:05:54;;;;;;;6.10;2.20;;;;;;;;;;7306666;19;140402;-90
2023/07/05 05:08:22;;;;;;;5.50;2.22;;;;;;;;;;7305598;19;141384;-88
2023/07/05 05:10:50;;;;;;;5.20;1.95;;;;;;;;;;7302490;19;141880;-86
2023/07/05 05:13:18;;;;;;;4.28;1.90;;;;;;;;;;7302427;19;140808;-77
2023/07/05 05:15:45;;;;;;;4.28;2.13;;;;;;;;;;7304940;19;140571;-91
2023/07/05 05:18:13;;;;;;;3.83;1.70;;;;;;;;;;7304773;19;140875;-90
2023/07/05 05:20:41;;;;;;;3.50;2.15;;;;;;;;;;7304594;19;142102;-89
2023/07/05 05:23:08;;;;;;;4.65;1.83;;;;;;;;;;7304791;19;140592;-88
2023/07/05 05:25:36;;;;;;;4.03;1.85;;;;;;;;;;7304222;19;140576;-84
2023/07/05 05:28:03;;;;;;;1.80;1.42;;;;;;;;;;7303599;19;141266;-84
2023/07/05 05:30:31;;;;;;;3.42;1.73;;;;;;;;;;7302973;19;141355;-85
2023/07/05 05:32:58;;;;;;;3.28;1.50;;;;;;;;;;7304006;19;140955;-87
2023/07/05 05:35:27;;;;;;;4.28;1.80;;;;;;;;;;7303145;19;140641;-87
2023/07/05 05:37:54;;;;;;;3.17;1.95;;;;;;;;;;7302781;19;142722;-87
2023/07/05 05:40:22;;;;;;;4.00;1.65;;;;;;;;;;7302450;19;142172;-83
2023/07/05 05:42:49;;;;;;;2.00;1.75;;;;;;;;;;7302312;19;140528;-82
2023/07/05 05:45:16;;;;;;;2.83;1.40;;;;;;;;;;7302361;19;140774;-81
2023/07/05 05:47:44;;;;;;;2.22;1.58;;;;;;;;;;7302576;19;141331;-81
2023/07/05 05:50:11;;;;;;;4.55;1.60;;;;;;;;;;7301217;19;141849;-82
2023/07/05 05:52:38;;;;;;;3.83;1.60;;;;;;;;;;7301162;19;140701;-83
2023/07/05 05:55:06;;;;;;;3.53;1.52;;;;;;;;;;7303006;19;140735;-83
2023/07/05 05:57:34;;;;;;;3.22;1.80;;;;;;;;;;7302393;19;142189;-83
2023/07/05 06:00:01;;;;;;;2.58;1.23;;;;;;;;;;7302503;19;141354;-83
2023/07/05 06:02:28;;;;;;;2.40;1.30;;;;;;;;;;7301744;19;140828;-84
2023/07/05 06:04:55;;;;;;;2.63;1.30;;;;;;;;;;7302079;19;140935;-85
2023/07/05 06:07:22;;;;;;;1.73;1.48;;;;;;;;;;7302195;19;141846;-83
2023/07/05 06:09:50;;;;;;;4.03;1.63;;;;;;;;;;7301587;19;141621;-83
2023/07/05 06:12:17;;;;;;;2.22;1.33;;;;;;;;;;7302095;19;140704;-83
2023/07/05 06:14:44;;;;;;;3.03;1.40;;;;;;;;;;7301625;19;141269;-84
2023/07/05 06:17:11;;;;;;;3.30;1.40;;;;;;;;;;7302435;19;141698;-84
2023/07/05 06:19:38;;;;;;;3.13;1.20;;;;;;;;;;7300961;19;141864;-84
2023/07/05 06:22:06;;;;;;;1.50;1.20;;;;;;;;;;7299022;19;140634;-85
2023/07/05 06:24:34;;;;;;;2.38;1.20;;;;;;;;;;7301503;19;140672;-84
2023/07/05 06:27:01;;;;;;;2.22;1.30;;;;;;;;;;7301699;19;142071;-88
2023/07/05 06:29:29;;;;;;;2.50;1.45;;;;;;;;;;7301365;19;141844;-89
2023/07/05 06:31:56;;;;;;;1.90;1.20;;;;;;;;;;7302559;19;140271;-88
2023/07/05 06:34:24;;;;;;;1.20;1.10;;;;;;;;;;7301710;19;140429;-88
2023/07/05 06:36:52;;;;;;;1.55;1.10;;;;;;;;;;7302032;19;142225;-89
2023/07/05 06:39:19;;;;;;;1.35;1.08;;;;;;;;;;7300701;19;142522;-88
2023/07/05 06:41:48;;;;;;;1.77;1.10;;;;;;;;;;7302756;19;140442;-87
2023/07/05 06:44:15;;;;;;;2.30;1.17;;;;;;;;;;7302040;19;140829;-88
2023/07/05 06:46:42;;;;;;;2.58;1.30;;;;;;;;;;7302756;19;141999;-88
2023/07/05 06:49:09;;;;;;;1.55;1.10;;;;;;;;;;7301547;19;142026;-87
2023/07/05 06:51:37;;;;;;;2.03;1.17;;;;;;;;;;7301370;19;140431;-86
2023/07/05 06:54:04;;;;;;;1.15;1.05;;;;;;;;;;7301184;19;141088;-85
2023/07/05 06:56:31;;;;;;;1.65;1.00;;;;;;;;;;7300581;19;142334;-84
2023/07/05 06:58:58;;;;;;;3.03;1.13;;;;;;;;;;7300764;19;142041;-83
2023/07/05 07:01:25;;;;;;;1.95;1.00;;;;;;;;;;7300450;19;140669;-83
2023/07/05 07:03:53;;;;;;;3.03;1.23;;;;;;;;;;7299712;19;140505;-85
2023/07/05 07:06:20;;;;;;;2.58;1.38;;;;;;;;;;7300256;19;141684;-85
2023/07/05 07:08:48;;;;;;;2.45;1.30;;;;;;;;;;7300132;19;142505;-85
2023/07/05 07:11:15;;;;;;;2.05;1.05;;;;;;;;;;7301022;19;140589;-85
2023/07/05 07:13:42;;;;;;;1.70;1.00;;;;;;;;;;7300317;19;140435;-86
2023/07/05 07:16:13;;;;;;;2.05;1.30;;;;;;;;;;7300165;19;142056;-89
2023/07/05 07:18:49;;;;;;;2.00;1.02;;;;;;;;;;7301985;19;140762;-90
2023/07/05 07:21:18;;;;;;;1.63;1.13;;;;;;;;;;7300326;19;140375;-89
2023/07/05 07:23:47;;;;;;;1.45;1.00;;;;;;;;;;7301672;19;140772;-90
2023/07/05 07:26:18;;;;;;;1.65;0.82;;;;;;;;;;7300273;19;141072;-89
2023/07/05 07:28:48;;;;;;;1.48;1.00;;;;;;;;;;7299822;19;142316;-90
2023/07/05 07:31:19;;;;;;;1.92;0.95;;;;;;;;;;7301999;19;140672;-87
2023/07/05 07:33:48;;;;;;;1.42;1.10;;;;;;;;;;7304643;19;140625;-86
2023/07/05 07:36:20;;;;;;;1.20;1.00;;;;;;;;;;7306542;19;140455;-87
2023/07/05 07:38:48;;;;;;;2.10;1.00;;;;;;;;;;7307725;19;141261;-87
2023/07/05 07:41:37;;;;;;;1.52;0.90;;;;;;;;;;7305714;19;140787;-86
2023/07/05 07:44:07;;;;;;;1.33;0.90;;;;;;;;;;7306925;19;140531;-86
2023/07/05 07:46:36;;;;;;;1.58;1.02;;;;;;;;;;7308056;19;140995;-88
2023/07/05 07:49:06;;;;;;;2.38;1.10;;;;;;;;;;7306798;19;141634;-87
2023/07/05 07:51:36;;;;;;;1.38;1.00;;;;;;;;;;7305738;19;140889;-88
2023/07/05 07:54:08;;;;;;;1.35;0.95;;;;;;;;;;7306456;19;140416;-86
2023/07/05 07:56:36;;;;;;;0.98;0.80;;;;;;;;;;7306007;19;140472;-85
2023/07/05 07:59:06;;;;;;;1.50;0.90;;;;;;;;;;7306264;19;141834;-85
2023/07/05 08:01:37;;;;;;;1.10;0.90;;;;;;;;;;7306709;19;140784;-85
2023/07/05 08:04:07;;;;;;;1.27;0.95;;;;;;;;;;7304012;19;140562;-85
2023/07/05 08:06:47;;;;;;;2.43;1.10;;;;;;;;;;7305878;19;141276;-83
2023/07/05 08:09:17;;;;;;;1.27;0.98;;;;;;;;;;7305996;19;141850;-84
2023/07/05 08:11:44;;;;;;;1.70;1.10;;;;;;;;;;7306314;19;140486;-82
2023/07/05 08:14:17;;;;;;;1.45;1.08;;;;;;;;;;7306093;19;140358;-85
2023/07/05 08:16:45;;;;;;;2.72;1.05;;;;;;;;;;7304152;19;141047;-86
2023/07/05 08:19:14;;;;;;;1.58;1.20;;;;;;;;;;7304423;19;142136;-85
2023/07/05 08:21:44;;;;;;;2.05;1.00;;;;;;;;;;7305155;19;140555;-85
2023/07/05 08:24:12;;;;;;;1.48;1.08;;;;;;;;;;7304906;19;140667;-86
2023/07/05 08:26:43;;;;;;;2.17;1.40;;;;;;;;;;7307479;19;140997;-88
2023/07/05 08:29:10;;;;;;;1.45;1.25;;;;;;;;;;7304111;19;143031;-85
2023/07/05 08:31:37;;;;;;;2.95;1.25;;;;;;;;;;7305050;19;140528;-87
2023/07/05 08:34:05;;;;;;;1.83;1.10;;;;;;;;;;7307100;19;140582;-88
2023/07/05 08:36:35;;;;;;;1.45;1.30;;;;;;;;;;7304385;19;141407;-88
2023/07/05 08:39:05;;;;;;;2.47;1.30;;;;;;;;;;7307566;19;141935;-83
2023/07/05 08:41:41;;;;;;;1.55;1.02;;;;;;;;;;7305278;19;140668;-87
2023/07/05 08:44:38;;;;;;;3.65;1.20;;;;;;;;;;7302196;19;140996;-80
2023/07/05 08:47:08;;;;;;;2.30;1.20;;;;;;;;;;7303552;19;140915;-80
2023/07/05 08:49:58;;;;;;;3.55;1.50;;;;;;;;;;7303317;19;141982;-84
2023/07/05 08:52:36;;;;;;;2.00;1.40;;;;;;;;;;7305442;19;140681;-83
2023/07/05 08:55:21;;;;;;;2.92;1.30;;;;;;;;;;7305951;19;140620;-79
2023/07/05 08:57:54;;;;;;;1.90;1.20;;;;;;;;;;7303394;19;141534;-83
2023/07/05 09:00:38;;;;;;;2.47;1.35;;;;;;;;;;7304526;19;142067;-82
2023/07/05 09:03:14;;;;;;;3.50;1.40;;;;;;;;;;7306013;19;140510;-90
2023/07/05 09:06:03;;;;;;;1.60;1.35;;;;;;;;;;7305027;19;140509;-84
2023/07/05 09:08:42;;;;;;;2.63;1.40;;;;;;;;;;7303263;19;142221;-89
2023/07/05 09:11:25;;;;;;;2.60;1.40;;;;;;;;;;7306207;19;140846;-89
2023/07/05 09:14:06;;;;;;;2.70;1.40;;;;;;;;;;7304554;19;140799;-86
2023/07/05 09:17:04;;;;;;;2.33;1.33;;;;;;;;;;7305883;19;140369;-87
2023/07/05 09:19:44;;;;;;;;;;;;;;;;;;7325050;19;140258;-85
2023/07/05 09:22:17;;;;;;;1.77;1.20;;;;;;;;;;7304070;19;147645;-87
2023/07/05 09:24:49;;;;;;;2.85;1.17;;;;;;;;;;7305962;19;141687;-89
2023/07/05 09:27:40;;;;;;;3.60;1.48;;;;;;;;;;7305150;19;140507;-89
2023/07/05 09:30:14;;;;;;;2.43;1.27;;;;;;;;;;7302915;19;141439;-88
2023/07/05 09:32:44;;;;;;;3.65;1.30;;;;;;;;;;7304334;19;141429;-89
2023/07/05 09:35:15;;;;;;;3.08;1.45;;;;;;;;;;7304096;19;141409;-90
2023/07/05 09:38:09;;;;;;;2.10;1.25;;;;;;;;;;7303995;19;140840;-90
2023/07/05 09:40:42;;;;;;;3.42;1.33;;;;;;;;;;7303285;19;142127;-87
2023/07/05 09:43:19;;;;;;;2.20;1.23;;;;;;;;;;7303534;19;141526;-88
2023/07/05 09:45:47;;;;;;;2.47;1.40;;;;;;;;;;7302494;19;140830;-89
2023/07/05 09:48:17;;;;;;;2.85;1.23;;;;;;;;;;7303499;19;140452;-91
2023/07/05 09:50:49;;;;;;;2.53;1.17;;;;;;;;;;7303475;19;141647;-90
2023/07/05 09:53:20;;;;;;;2.70;1.52;;;;;;;;;;7303564;19;142126;-89
2023/07/05 09:56:06;;;;;;;3.67;1.33;;;;;;;;;;7301579;19;140607;-84
2023/07/05 09:58:34;;;;;;;1.80;1.40;;;;;;;;;;7304857;19;140745;-93
2023/07/05 10:01:04;;;;;;;2.42;1.40;;;;;;;;;;7302475;19;143219;-87
2023/07/05 10:03:52;;;;;;;3.40;1.50;;;;;;;;;;7301153;19;142021;-84
2023/07/05 10:06:24;;;;;;;3.00;1.30;;;;;;;;;;7301042;19;140536;-83
2023/07/05 10:08:53;;;;;;;1.92;1.35;;;;;;;;;;7305240;19;140473;-87
2023/07/05 10:11:34;;;;;;;4.57;1.83;;;;;;;;;;7301424;19;143011;-86
2023/07/05 10:14:05;;;;;;;2.22;1.40;;;;;;;;;;7302179;19;140895;-87
2023/07/05 10:16:56;;;;;;;3.60;1.73;;;;;;;;;;7304233;19;140454;-86
2023/07/05 10:19:28;;;;;;;6.10;1.77;;;;;;;;;;7302875;19;140672;-85
2023/07/05 10:22:12;;;;;;;2.70;1.63;;;;;;;;;;7302253;19;140485;-83
2023/07/05 10:24:50;;;;;;;4.80;1.80;;;;;;;;;;7301594;19;142481;-85
2023/07/05 10:27:32;;;;;;;2.58;1.55;;;;;;;;;;7303939;19;140562;-85
2023/07/05 10:30:07;;;;;;;2.90;1.75;;;;;;;;;;7302436;19;140542;-87
2023/07/05 10:32:36;;;;;;;3.58;1.60;;;;;;;;;;7300530;19;141820;-86
2023/07/05 10:35:20;;;;;;;3.00;1.63;;;;;;;;;;7301427;19;141305;-85
2023/07/05 10:37:49;;;;;;;3.83;1.55;;;;;;;;;;7301374;19;140572;-85
2023/07/05 10:40:21;;;;;;;2.20;1.40;;;;;;;;;;7301995;19;140374;-85
2023/07/05 10:42:52;;;;;;;4.60;1.55;;;;;;;;;;7299394;19;141319;-85
2023/07/05 10:45:22;;;;;;;3.50;1.70;;;;;;;;;;7302077;19;142773;-84
2023/07/05 10:47:52;;;;;;;3.45;1.65;;;;;;;;;;7300304;19;140496;-84
2023/07/05 10:50:28;;;;;;;4.80;1.77;;;;;;;;;;7299625;19;140658;-81
2023/07/05 10:53:04;;;;;;;2.25;1.40;;;;;;;;;;7299056;19;140723;-80
2023/07/05 10:56:03;;;;;;;2.78;1.55;;;;;;;;;;7301103;19;141996;-81
2023/07/05 10:58:42;;;;;;;2.55;1.60;;;;;;;;;;7300161;19;140620;-84
2023/07/05 11:01:21;;;;;;;2.58;1.40;;;;;;;;;;7298786;19;141983;-83
2023/07/05 11:03:56;;;;;;;4.18;1.60;;;;;;;;;;7300516;19;140979;-87
2023/07/05 11:06:24;;;;;;;2.88;1.55;;;;;;;;;;7299950;19;142368;-84
2023/07/05 11:08:52;;;;;;;3.03;1.60;;;;;;;;;;7305915;19;140646;-83
2023/07/05 11:11:30;;;;;;;4.32;1.83;;;;;;;;;;7308323;19;140597;-84
2023/07/05 11:14:00;;;;;;;4.53;1.85;;;;;;;;;;7307330;19;141426;-83
2023/07/05 11:16:29;;;;;;;1.67;1.38;;;;;;;;;;7307419;19;142060;-84
2023/07/05 11:19:06;;;;;;;3.97;1.60;;;;;;;;;;7306046;19;140596;-83
2023/07/05 11:21:44;;;;;;;3.13;1.60;;;;;;;;;;7307024;19;141025;-84
2023/07/05 11:24:33;;;;;;;2.30;1.60;;;;;;;;;;7306082;19;141337;-86
2023/07/05 11:27:01;;;;;;;3.10;1.63;;;;;;;;;;7310576;19;140711;-82
2023/07/05 11:29:28;;;;;;;3.03;1.60;;;;;;;;;;7307790;19;140444;-81
2023/07/05 11:31:58;;;;;;;4.13;1.88;;;;;;;;;;7307841;19;140879;-83
2023/07/05 11:34:26;;;;;;;;;;;;;;;;;;7307611;19;140766;-82
2023/07/05 11:37:13;;;;;;;2.75;1.48;;;;;;;;;;7305392;19;148264;-82
2023/07/05 11:39:42;;;;;;;2.13;1.38;;;;;;;;;;7306884;19;140909;-82
2023/07/05 11:42:15;;;;;;;3.53;1.40;;;;;;;;;;7304995;19;140866;-82
2023/07/05 11:44:46;;;;;;;2.95;1.50;;;;;;;;;;7306576;19;143458;-83
2023/07/05 11:47:22;;;;;;;4.32;1.63;;;;;;;;;;7307286;19;140904;-86
2023/07/05 11:50:06;;;;;;;3.17;1.67;;;;;;;;;;7307988;19;140785;-86
2023/07/05 11:52:38;;;;;;;1.98;1.45;;;;;;;;;;7306605;19;140786;-82
2023/07/05 11:55:15;;;;;;;2.58;1.73;;;;;;;;;;7307170;19;140729;-83
2023/07/05 11:57:42;;;;;;;2.42;1.40;;;;;;;;;;7306338;19;141421;-82
2023/07/05 12:00:18;;;;;;;2.88;1.50;;;;;;;;;;7307363;19;140450;-81
2023/07/05 12:02:48;;;;;;;2.35;1.45;;;;;;;;;;7305437;19;140637;-77
2023/07/05 12:05:19;;;;;;;2.25;1.67;;;;;;;;;;7306584;19;142493;-78
2023/07/05 12:07:57;;;;;;;2.50;1.60;;;;;;;;;;7307295;19;140599;-79
2023/07/05 12:10:28;;;;;;;2.67;1.60;;;;;;;;;;7304226;19;140587;-82
2023/07/05 12:12:56;;;;;;;2.42;1.67;;;;;;;;;;7308673;19;140607;-82
2023/07/05 12:15:23;;;;;;;3.03;1.60;;;;;;;;;;7306115;19;142378;-84
2023/07/05 12:18:02;;;;;;;2.35;1.70;;;;;;;;;;7305999;19;143545;-81
2023/07/05 12:24:15;;;;;;;4.63;2.40;;;;;;;;;;7266103;19;142362;-76
2023/07/05 12:26:45;;;;;;;4.28;2.00;;;;;;;;;;7307288;19;141313;-75
2023/07/05 12:33:02;;;;;;;2.90;1.85;;;;;;;;;;7334803;19;139971;-77
2023/07/05 12:35:30;;;;;;;3.10;1.83;;;;;;;;;;7317824;19;140543;-76
2023/07/05 12:38:06;;;;;;;3.20;1.90;;;;;;;;;;7315302;19;143031;-78
2023/07/05 12:40:40;;;;;;;5.10;1.73;;;;;;;;;;7315277;19;140767;-79
2023/07/05 12:43:09;;;;;;;2.95;1.55;;;;;;;;;;7305683;19;140418;-79
2023/07/05 12:45:39;;;;;;;3.55;1.60;;;;;;;;;;7305772;19;140541;-87
2023/07/05 12:48:54;;;;;;;2.40;1.73;;;;;;;;;;7305486;19;141900;-79
2023/07/05 12:51:28;;;;;;;4.15;1.60;;;;;;;;;;7302644;19;140941;-80
2023/07/05 12:54:00;;;;;;;3.08;1.50;;;;;;;;;;7304643;19;140652;-82
2023/07/05 12:56:34;;;;;;;2.65;1.38;;;;;;;;;;7303169;19;140687;-79
2023/07/05 12:59:06;;;;;;;3.38;1.67;;;;;;;;;;7304105;19;141482;-78
2023/07/05 13:01:49;;;;;;;2.33;1.30;;;;;;;;;;7303640;19;142055;-78
2023/07/05 13:04:22;;;;;;;4.18;1.55;;;;;;;;;;7303703;19;140536;-79
2023/07/05 13:06:54;;;;;;;3.00;1.40;;;;;;;;;;7303680;19;140603;-78
2023/07/05 13:09:30;;;;;;;2.28;1.27;;;;;;;;;;7301861;19;140533;-78
2023/07/05 13:12:00;;;;;;;3.22;1.40;;;;;;;;;;7303667;19;143438;-78
2023/07/05 13:14:31;;;;;;;2.97;1.38;;;;;;;;;;7304648;19;140681;-78
2023/07/05 13:17:23;;;;;;;1.50;1.20;;;;;;;;;;7302524;19;140760;-78
2023/07/05 13:20:19;;;;;;;2.53;1.25;;;;;;;;;;7303172;19;142244;-80
2023/07/05 13:22:52;;;;;;;2.08;1.20;;;;;;;;;;7303174;19;141680;-80
2023/07/05 13:25:41;;;;;;;1.75;1.00;;;;;;;;;;7303581;19;140437;-81
2023/07/05 13:28:20;;;;;;;2.03;1.10;;;;;;;;;;7304058;19;141805;-81
2023/07/05 13:31:03;;;;;;;2.42;1.17;;;;;;;;;;7301828;19;140563;-81
2023/07/05 13:33:36;;;;;;;2.25;0.95;;;;;;;;;;7303534;19;141000;-83
2023/07/05 13:36:04;;;;;;;1.83;0.75;;;;;;;;;;7301621;19;141532;-82
2023/07/05 13:38:35;;;;;;;2.20;1.23;;;;;;;;;;7303570;19;140551;-81
2023/07/05 13:41:04;;;;;;;3.25;1.15;;;;;;;;;;7302379;19;141228;-81
2023/07/05 13:43:33;;;;;;;1.20;1.00;;;;;;;;;;7300526;19;142154;-80
2023/07/05 13:46:01;;;;;;;2.47;0.85;;;;;;;;;;7303245;19;140473;-80
2023/07/05 13:48:29;;;;;;;1.58;0.80;;;;;;;;;;7303133;19;140612;-81
2023/07/05 13:50:57;;;;;;;2.13;0.88;;;;;;;;;;7299580;19;140863;-81
2023/07/05 13:53:27;;;;;;;1.85;1.10;;;;;;;;;;7299187;19;142705;-81
2023/07/05 13:55:54;;;;;;;2.10;1.00;;;;;;;;;;7302416;19;140854;-81
2023/07/05 13:58:23;;;;;;;2.35;1.00;;;;;;;;;;7302438;19;140711;-77
2023/07/05 14:00:50;;;;;;;3.00;1.25;;;;;;;;;;7304122;19;140546;-92
2023/07/05 14:03:21;;;;;;;3.30;1.73;;;;;;;;;;7307214;19;140797;-96
2023/07/05 14:05:57;;;;;;;2.60;1.67;;;;;;;;;;7304596;19;140504;-83
2023/07/05 14:08:26;;;;;;;2.83;1.60;;;;;;;;;;7301975;19;140671;-82
2023/07/05 14:10:57;;;;;;;3.13;1.63;;;;;;;;;;7302143;19;140667;-79
2023/07/05 14:13:24;;;;;;;3.15;1.80;;;;;;;;;;7302402;19;143136;-78
2023/07/05 14:15:52;;;;;;;3.40;1.77;;;;;;;;;;7301004;19;140987;-77
2023/07/05 14:18:19;;;;;;;3.10;1.33;;;;;;;;;;7300634;19;140796;-80
2023/07/05 14:20:50;;;;;;;3.30;1.60;;;;;;;;;;7301479;19;141276;-77
2023/07/05 14:23:17;;;;;;;1.70;1.23;;;;;;;;;;7300746;19;141965;-77
2023/07/05 14:25:50;;;;;;;2.40;1.42;;;;;;;;;;7302710;19;140831;-78
2023/07/05 14:28:19;;;;;;;3.22;1.33;;;;;;;;;;7301143;19;140827;-76
2023/07/05 14:30:48;;;;;;;2.67;1.20;;;;;;;;;;7301165;19;141547;-76
2023/07/05 14:33:18;;;;;;;2.28;1.23;;;;;;;;;;7301779;19;142489;-77
2023/07/05 14:35:46;;;;;;;2.08;1.33;;;;;;;;;;7300184;19;140530;-76
2023/07/05 14:38:13;;;;;;;2.60;1.10;;;;;;;;;;7301319;19;141975;-76
2023/07/05 14:40:44;;;;;;;1.67;1.10;;;;;;;;;;7301568;19;142378;-76
2023/07/05 14:43:12;;;;;;;1.02;0.90;;;;;;;;;;7298286;19;142036;-76
2023/07/05 14:45:42;;;;;;;2.10;1.35;;;;;;;;;;7302073;19;140436;-75
2023/07/05 14:48:10;;;;;;;2.05;1.10;;;;;;;;;;7301854;19;140617;-75
2023/07/05 14:50:38;;;;;;;2.22;1.30;;;;;;;;;;7299873;19;141350;-76
2023/07/05 14:53:11;;;;;;;2.83;1.20;;;;;;;;;;7298892;19;142160;-75
2023/07/05 14:55:38;;;;;;;1.98;1.40;;;;;;;;;;7301493;19;140608;-76
2023/07/05 14:58:12;;;;;;;1.58;1.08;;;;;;;;;;7299689;19;141584;-75
2023/07/05 15:00:41;;;;;;;2.35;1.10;;;;;;;;;;7299428;19;140515;-75
2023/07/05 15:03:16;;;;;;;3.30;1.15;;;;;;;;;;7301123;19;142003;-77
2023/07/05 15:05:43;;;;;;;1.20;1.10;;;;;;;;;;7300902;19;140577;-75